sensor_id;sensor_type;location;lat;lon;timestamp;temperature;humidity
57026;DHT22;43961;52.940;6.834;2023-11-21T00:01:38;7.70;99.90
57026;DHT22;43961;52.940;6.834;2023-11-21T00:04:03;7.80;99.90
57026;DHT22;43961;52.940;6.834;2023-11-21T00:06:29;7.80;99.90
57026;DHT22;43961;52.940;6.834;2023-11-21T00:08:56;7.80;99.90
57026;DHT22;43961;52.940;6.834;2023-11-21T00:11:21;7.80;99.90
57026;DHT22;43961;52.940;6.834;2023-11-21T00:13:47;7.80;99.90
57026;DHT22;43961;52.940;6.834;2023-11-21T00:16:13;7.80;99.90
57026;DHT22;43961;52.940;6.834;2023-11-21T00:18:38;7.80;99.90
57026;DHT22;43961;52.940;6.834;2023-11-21T00:21:05;7.80;99.90
57026;DHT22;43961;52.940;6.834;2023-11-21T00:23:30;7.80;99.90
57026;DHT22;43961;52.940;6.834;2023-11-21T00:25:57;7.80;99.90
57026;DHT22;43961;52.940;6.834;2023-11-21T00:28:23;7.80;99.90
57026;DHT22;43961;52.940;6.834;2023-11-21T00:30:48;7.90;99.90
57026;DHT22;43961;52.940;6.834;2023-11-21T00:33:14;7.90;99.90
57026;DHT22;43961;52.940;6.834;2023-11-21T00:35:41;7.90;99.90
57026;DHT22;43961;52.940;6.834;2023-11-21T00:38:06;7.90;99.90
57026;DHT22;43961;52.940;6.834;2023-11-21T00:40:33;7.90;99.90
57026;DHT22;43961;52.940;6.834;2023-11-21T00:42:59;7.90;99.90
57026;DHT22;43961;52.940;6.834;2023-11-21T00:45:25;7.90;99.90
57026;DHT22;43961;52.940;6.834;2023-11-21T00:47:51;7.90;99.90
57026;DHT22;43961;52.940;6.834;2023-11-21T00:50:16;7.90;99.90
57026;DHT22;43961;52.940;6.834;2023-11-21T00:52:42;8.00;99.90
57026;DHT22;43961;52.940;6.834;2023-11-21T00:55:08;8.00;99.90
57026;DHT22;43961;52.940;6.834;2023-11-21T00:57:35;8.00;99.90
57026;DHT22;43961;52.940;6.834;2023-11-21T01:00:00;8.00;99.90
57026;DHT22;43961;52.940;6.834;2023-11-21T01:02:26;8.00;99.90
57026;DHT22;43961;52.940;6.834;2023-11-21T01:04:52;8.10;99.90
57026;DHT22;43961;52.940;6.834;2023-11-21T01:07:17;8.10;99.90
57026;DHT22;43961;52.940;6.834;2023-11-21T01:42:55;8.20;99.90
57026;DHT22;43961;52.940;6.834;2023-11-21T01:45:21;8.10;99.90
57026;DHT22;43961;52.940;6.834;2023-11-21T01:47:47;8.10;99.90
57026;DHT22;43961;52.940;6.834;2023-11-21T01:50:16;8.10;99.90
57026;DHT22;43961;52.940;6.834;2023-11-21T01:52:45;8.10;99.90
57026;DHT22;43961;52.940;6.834;2023-11-21T01:55:11;8.10;99.90
57026;DHT22;43961;52.940;6.834;2023-11-21T01:57:37;8.10;99.90
57026;DHT22;43961;52.940;6.834;2023-11-21T02:00:05;8.10;99.90
57026;DHT22;43961;52.940;6.834;2023-11-21T02:02:48;8.10;99.90
57026;DHT22;43961;52.940;6.834;2023-11-21T02:05:18;8.10;99.90
57026;DHT22;43961;52.940;6.834;2023-11-21T02:07:44;8.10;99.90
57026;DHT22;43961;52.940;6.834;2023-11-21T02:10:10;8.10;99.90
57026;DHT22;43961;52.940;6.834;2023-11-21T02:12:40;8.10;99.90
57026;DHT22;43961;52.940;6.834;2023-11-21T02:15:11;8.10;99.90
57026;DHT22;43961;52.940;6.834;2023-11-21T02:17:43;8.10;99.90
57026;DHT22;43961;52.940;6.834;2023-11-21T02:20:12;8.10;99.90
57026;DHT22;43961;52.940;6.834;2023-11-21T02:22:41;8.10;99.90
57026;DHT22;43961;52.940;6.834;2023-11-21T02:25:08;8.10;99.90
57026;DHT22;43961;52.940;6.834;2023-11-21T02:27:34;8.10;99.90
57026;DHT22;43961;52.940;6.834;2023-11-21T02:29:59;8.10;99.90
57026;DHT22;43961;52.940;6.834;2023-11-21T02:32:26;8.10;99.90
57026;DHT22;43961;52.940;6.834;2023-11-21T02:34:52;8.10;99.90
57026;DHT22;43961;52.940;6.834;2023-11-21T02:37:19;8.10;99.90
57026;DHT22;43961;52.940;6.834;2023-11-21T02:39:45;8.10;99.90
57026;DHT22;43961;52.940;6.834;2023-11-21T02:42:11;8.10;99.90
57026;DHT22;43961;52.940;6.834;2023-11-21T02:44:36;8.20;99.90
57026;DHT22;43961;52.940;6.834;2023-11-21T02:47:02;8.20;99.90
57026;DHT22;43961;52.940;6.834;2023-11-21T02:49:28;8.20;99.90
57026;DHT22;43961;52.940;6.834;2023-11-21T02:51:54;8.20;99.90
57026;DHT22;43961;52.940;6.834;2023-11-21T02:54:23;8.20;99.90
57026;DHT22;43961;52.940;6.834;2023-11-21T02:56:48;8.20;99.90
57026;DHT22;43961;52.940;6.834;2023-11-21T02:59:15;8.20;99.90
57026;DHT22;43961;52.940;6.834;2023-11-21T03:01:44;8.20;99.90
57026;DHT22;43961;52.940;6.834;2023-11-21T03:04:10;8.20;99.90
57026;DHT22;43961;52.940;6.834;2023-11-21T03:06:36;8.20;99.90
57026;DHT22;43961;52.940;6.834;2023-11-21T03:09:02;8.20;99.90
57026;DHT22;43961;52.940;6.834;2023-11-21T03:11:27;8.30;99.90
57026;DHT22;43961;52.940;6.834;2023-11-21T03:13:53;8.30;99.90
57026;DHT22;43961;52.940;6.834;2023-11-21T03:16:19;8.30;99.90
57026;DHT22;43961;52.940;6.834;2023-11-21T03:18:44;8.30;99.90
57026;DHT22;43961;52.940;6.834;2023-11-21T03:21:10;8.30;99.90
57026;DHT22;43961;52.940;6.834;2023-11-21T03:23:36;8.30;99.90
57026;DHT22;43961;52.940;6.834;2023-11-21T03:26:03;8.30;99.90
57026;DHT22;43961;52.940;6.834;2023-11-21T03:28:28;8.40;99.90
57026;DHT22;43961;52.940;6.834;2023-11-21T03:30:55;8.40;99.90
57026;DHT22;43961;52.940;6.834;2023-11-21T03:33:21;8.40;99.90
57026;DHT22;43961;52.940;6.834;2023-11-21T03:35:48;8.40;99.90
57026;DHT22;43961;52.940;6.834;2023-11-21T03:38:14;8.40;99.90
57026;DHT22;43961;52.940;6.834;2023-11-21T03:40:40;8.40;99.90
57026;DHT22;43961;52.940;6.834;2023-11-21T03:43:06;8.40;99.90
57026;DHT22;43961;52.940;6.834;2023-11-21T03:45:32;8.40;99.90
57026;DHT22;43961;52.940;6.834;2023-11-21T03:47:57;8.50;99.90
57026;DHT22;43961;52.940;6.834;2023-11-21T03:50:23;8.50;99.90
57026;DHT22;43961;52.940;6.834;2023-11-21T03:52:49;8.50;99.90
57026;DHT22;43961;52.940;6.834;2023-11-21T03:55:14;8.50;99.90
57026;DHT22;43961;52.940;6.834;2023-11-21T03:57:40;8.50;99.90
57026;DHT22;43961;52.940;6.834;2023-11-21T04:00:06;8.50;99.90
57026;DHT22;43961;52.940;6.834;2023-11-21T04:02:34;8.60;99.90
57026;DHT22;43961;52.940;6.834;2023-11-21T04:05:00;8.50;99.90
57026;DHT22;43961;52.940;6.834;2023-11-21T04:07:26;8.50;99.90
57026;DHT22;43961;52.940;6.834;2023-11-21T04:09:52;8.50;99.90
57026;DHT22;43961;52.940;6.834;2023-11-21T04:12:19;8.50;99.90
57026;DHT22;43961;52.940;6.834;2023-11-21T04:14:45;8.50;99.90
57026;DHT22;43961;52.940;6.834;2023-11-21T04:17:10;8.60;99.90
57026;DHT22;43961;52.940;6.834;2023-11-21T04:19:36;8.60;99.90
57026;DHT22;43961;52.940;6.834;2023-11-21T04:22:02;8.60;99.90
57026;DHT22;43961;52.940;6.834;2023-11-21T04:24:27;8.60;99.90
57026;DHT22;43961;52.940;6.834;2023-11-21T04:26:53;8.60;99.90
57026;DHT22;43961;52.940;6.834;2023-11-21T04:29:19;8.70;99.90
57026;DHT22;43961;52.940;6.834;2023-11-21T04:31:45;8.60;99.90
57026;DHT22;43961;52.940;6.834;2023-11-21T04:34:11;8.60;99.90
57026;DHT22;43961;52.940;6.834;2023-11-21T04:36:39;8.50;99.90
57026;DHT22;43961;52.940;6.834;2023-11-21T04:39:05;8.60;99.90
57026;DHT22;43961;52.940;6.834;2023-11-21T04:41:32;8.60;99.90
57026;DHT22;43961;52.940;6.834;2023-11-21T04:43:58;8.60;99.90
57026;DHT22;43961;52.940;6.834;2023-11-21T04:46:26;8.60;99.90
57026;DHT22;43961;52.940;6.834;2023-11-21T04:48:52;8.60;99.90
57026;DHT22;43961;52.940;6.834;2023-11-21T04:51:17;8.70;99.90
57026;DHT22;43961;52.940;6.834;2023-11-21T04:53:43;8.60;99.90
57026;DHT22;43961;52.940;6.834;2023-11-21T04:56:09;8.60;99.90
57026;DHT22;43961;52.940;6.834;2023-11-21T04:58:34;8.60;99.90
57026;DHT22;43961;52.940;6.834;2023-11-21T05:01:01;8.60;99.90
57026;DHT22;43961;52.940;6.834;2023-11-21T05:03:26;8.60;99.90
57026;DHT22;43961;52.940;6.834;2023-11-21T05:05:52;8.60;99.90
57026;DHT22;43961;52.940;6.834;2023-11-21T05:08:18;8.60;99.90
57026;DHT22;43961;52.940;6.834;2023-11-21T05:10:46;8.60;99.90
57026;DHT22;43961;52.940;6.834;2023-11-21T05:13:11;8.60;99.90
57026;DHT22;43961;52.940;6.834;2023-11-21T05:15:37;8.60;99.90
57026;DHT22;43961;52.940;6.834;2023-11-21T05:18:04;8.60;99.90
57026;DHT22;43961;52.940;6.834;2023-11-21T05:20:30;8.60;99.90
57026;DHT22;43961;52.940;6.834;2023-11-21T05:22:56;8.60;99.90
57026;DHT22;43961;52.940;6.834;2023-11-21T05:25:21;8.60;99.90
57026;DHT22;43961;52.940;6.834;2023-11-21T05:27:47;8.60;99.90
57026;DHT22;43961;52.940;6.834;2023-11-21T05:30:14;8.60;99.90
57026;DHT22;43961;52.940;6.834;2023-11-21T05:32:41;8.60;99.90
57026;DHT22;43961;52.940;6.834;2023-11-21T05:35:10;8.60;99.90
57026;DHT22;43961;52.940;6.834;2023-11-21T05:37:41;8.60;99.90
57026;DHT22;43961;52.940;6.834;2023-11-21T05:40:07;8.60;99.90
57026;DHT22;43961;52.940;6.834;2023-11-21T05:42:34;8.60;99.90
57026;DHT22;43961;52.940;6.834;2023-11-21T05:45:00;8.60;99.90
57026;DHT22;43961;52.940;6.834;2023-11-21T05:47:42;8.60;99.90
57026;DHT22;43961;52.940;6.834;2023-11-21T05:50:13;8.60;99.90
57026;DHT22;43961;52.940;6.834;2023-11-21T05:52:46;8.60;99.90
57026;DHT22;43961;52.940;6.834;2023-11-21T05:55:13;8.60;99.90
57026;DHT22;43961;52.940;6.834;2023-11-21T05:57:39;8.60;99.90
57026;DHT22;43961;52.940;6.834;2023-11-21T06:00:10;8.60;99.90
57026;DHT22;43961;52.940;6.834;2023-11-21T06:02:51;8.60;99.90
57026;DHT22;43961;52.940;6.834;2023-11-21T06:05:23;8.60;99.90
57026;DHT22;43961;52.940;6.834;2023-11-21T06:07:49;8.60;99.90
57026;DHT22;43961;52.940;6.834;2023-11-21T06:10:15;8.60;99.90
57026;DHT22;43961;52.940;6.834;2023-11-21T06:12:43;8.60;99.90
57026;DHT22;43961;52.940;6.834;2023-11-21T06:15:10;8.60;99.90
57026;DHT22;43961;52.940;6.834;2023-11-21T06:17:39;8.60;99.90
57026;DHT22;43961;52.940;6.834;2023-11-21T06:20:06;8.60;99.90
57026;DHT22;43961;52.940;6.834;2023-11-21T06:22:40;8.60;99.90
57026;DHT22;43961;52.940;6.834;2023-11-21T06:25:06;8.70;99.90
57026;DHT22;43961;52.940;6.834;2023-11-21T06:27:43;8.70;99.90
57026;DHT22;43961;52.940;6.834;2023-11-21T06:30:10;8.70;99.90
57026;DHT22;43961;52.940;6.834;2023-11-21T06:32:37;8.70;99.90
57026;DHT22;43961;52.940;6.834;2023-11-21T06:35:04;8.70;99.90
57026;DHT22;43961;52.940;6.834;2023-11-21T06:37:31;8.70;99.90
57026;DHT22;43961;52.940;6.834;2023-11-21T06:39:58;8.70;99.90
57026;DHT22;43961;52.940;6.834;2023-11-21T06:42:24;8.70;99.90
57026;DHT22;43961;52.940;6.834;2023-11-21T06:44:50;8.70;99.90
57026;DHT22;43961;52.940;6.834;2023-11-21T06:47:19;8.70;99.90
57026;DHT22;43961;52.940;6.834;2023-11-21T06:49:46;8.70;99.90
57026;DHT22;43961;52.940;6.834;2023-11-21T06:52:15;8.70;99.90
57026;DHT22;43961;52.940;6.834;2023-11-21T06:54:40;8.70;99.90
57026;DHT22;43961;52.940;6.834;2023-11-21T06:57:06;8.70;99.90
57026;DHT22;43961;52.940;6.834;2023-11-21T06:59:32;8.70;99.90
57026;DHT22;43961;52.940;6.834;2023-11-21T07:01:57;8.70;99.90
57026;DHT22;43961;52.940;6.834;2023-11-21T07:04:23;8.80;99.90
57026;DHT22;43961;52.940;6.834;2023-11-21T07:06:51;8.80;99.90
57026;DHT22;43961;52.940;6.834;2023-11-21T07:09:17;8.80;99.90
57026;DHT22;43961;52.940;6.834;2023-11-21T07:11:42;8.80;99.90
57026;DHT22;43961;52.940;6.834;2023-11-21T07:14:08;8.70;99.90
57026;DHT22;43961;52.940;6.834;2023-11-21T07:16:38;8.80;99.90
57026;DHT22;43961;52.940;6.834;2023-11-21T07:19:04;8.90;99.90
57026;DHT22;43961;52.940;6.834;2023-11-21T07:21:34;8.80;99.90
57026;DHT22;43961;52.940;6.834;2023-11-21T07:24:02;8.90;99.90
57026;DHT22;43961;52.940;6.834;2023-11-21T07:26:28;8.90;99.90
57026;DHT22;43961;52.940;6.834;2023-11-21T07:28:54;8.80;99.90
57026;DHT22;43961;52.940;6.834;2023-11-21T07:31:19;8.90;99.90
57026;DHT22;43961;52.940;6.834;2023-11-21T07:33:48;8.90;99.90
57026;DHT22;43961;52.940;6.834;2023-11-21T07:36:14;8.90;99.90
57026;DHT22;43961;52.940;6.834;2023-11-21T07:38:41;8.90;99.90
57026;DHT22;43961;52.940;6.834;2023-11-21T07:41:07;8.90;99.90
57026;DHT22;43961;52.940;6.834;2023-11-21T07:43:36;8.90;99.90
57026;DHT22;43961;52.940;6.834;2023-11-21T07:46:05;8.90;99.90
57026;DHT22;43961;52.940;6.834;2023-11-21T07:48:32;8.90;99.90
57026;DHT22;43961;52.940;6.834;2023-11-21T07:50:58;8.90;99.90
57026;DHT22;43961;52.940;6.834;2023-11-21T07:53:24;8.90;99.90
57026;DHT22;43961;52.940;6.834;2023-11-21T07:56:04;8.90;99.90
57026;DHT22;43961;52.940;6.834;2023-11-21T07:58:31;8.90;99.90
57026;DHT22;43961;52.940;6.834;2023-11-21T08:00:59;8.80;99.90
57026;DHT22;43961;52.940;6.834;2023-11-21T08:03:25;8.80;99.90
57026;DHT22;43961;52.940;6.834;2023-11-21T08:05:52;8.80;99.90
57026;DHT22;43961;52.940;6.834;2023-11-21T08:08:18;8.80;99.90
57026;DHT22;43961;52.940;6.834;2023-11-21T08:10:44;8.70;99.90
57026;DHT22;43961;52.940;6.834;2023-11-21T08:13:24;8.70;99.90
57026;DHT22;43961;52.940;6.834;2023-11-21T08:15:50;8.70;99.90
57026;DHT22;43961;52.940;6.834;2023-11-21T08:18:16;8.70;99.90
57026;DHT22;43961;52.940;6.834;2023-11-21T08:20:43;8.60;99.90
57026;DHT22;43961;52.940;6.834;2023-11-21T08:23:09;8.60;99.90
57026;DHT22;43961;52.940;6.834;2023-11-21T08:25:34;8.60;99.90
57026;DHT22;43961;52.940;6.834;2023-11-21T08:28:00;8.50;99.90
57026;DHT22;43961;52.940;6.834;2023-11-21T08:30:27;8.60;99.90
57026;DHT22;43961;52.940;6.834;2023-11-21T08:32:55;8.50;99.90
57026;DHT22;43961;52.940;6.834;2023-11-21T08:35:24;8.60;99.90
57026;DHT22;43961;52.940;6.834;2023-11-21T08:37:54;8.50;99.90
57026;DHT22;43961;52.940;6.834;2023-11-21T08:40:20;8.50;99.90
57026;DHT22;43961;52.940;6.834;2023-11-21T08:42:47;8.60;99.90
57026;DHT22;43961;52.940;6.834;2023-11-21T08:45:16;8.40;99.90
57026;DHT22;43961;52.940;6.834;2023-11-21T08:47:43;8.50;99.90
57026;DHT22;43961;52.940;6.834;2023-11-21T08:50:12;8.50;99.90
57026;DHT22;43961;52.940;6.834;2023-11-21T08:52:42;8.40;99.90
57026;DHT22;43961;52.940;6.834;2023-11-21T08:55:08;8.40;99.90
57026;DHT22;43961;52.940;6.834;2023-11-21T08:57:38;8.40;99.90
57026;DHT22;43961;52.940;6.834;2023-11-21T09:00:07;8.40;99.90
57026;DHT22;43961;52.940;6.834;2023-11-21T09:02:34;8.40;99.90
57026;DHT22;43961;52.940;6.834;2023-11-21T09:05:00;8.40;99.90
57026;DHT22;43961;52.940;6.834;2023-11-21T09:07:29;8.30;99.90
57026;DHT22;43961;52.940;6.834;2023-11-21T09:09:54;8.30;99.90
57026;DHT22;43961;52.940;6.834;2023-11-21T09:12:20;8.30;99.90
57026;DHT22;43961;52.940;6.834;2023-11-21T09:14:47;8.30;99.90
57026;DHT22;43961;52.940;6.834;2023-11-21T09:17:13;8.30;99.90
57026;DHT22;43961;52.940;6.834;2023-11-21T09:19:40;8.30;99.90
57026;DHT22;43961;52.940;6.834;2023-11-21T09:22:06;8.30;99.90
57026;DHT22;43961;52.940;6.834;2023-11-21T09:24:36;8.30;99.90
57026;DHT22;43961;52.940;6.834;2023-11-21T09:27:03;8.30;99.90
57026;DHT22;43961;52.940;6.834;2023-11-21T09:29:30;8.30;99.90
57026;DHT22;43961;52.940;6.834;2023-11-21T09:31:57;8.30;99.90
57026;DHT22;43961;52.940;6.834;2023-11-21T09:34:25;8.30;99.90
57026;DHT22;43961;52.940;6.834;2023-11-21T09:36:51;8.30;99.90
57026;DHT22;43961;52.940;6.834;2023-11-21T09:39:17;8.30;99.90
57026;DHT22;43961;52.940;6.834;2023-11-21T09:41:49;8.30;99.90
57026;DHT22;43961;52.940;6.834;2023-11-21T09:44:18;8.30;99.90
57026;DHT22;43961;52.940;6.834;2023-11-21T09:46:48;8.30;99.90
57026;DHT22;43961;52.940;6.834;2023-11-21T09:49:15;8.30;99.90
57026;DHT22;43961;52.940;6.834;2023-11-21T09:51:43;8.20;99.90
57026;DHT22;43961;52.940;6.834;2023-11-21T09:54:10;8.30;99.90
57026;DHT22;43961;52.940;6.834;2023-11-21T09:56:39;8.30;99.90
57026;DHT22;43961;52.940;6.834;2023-11-21T09:59:06;8.20;99.90
57026;DHT22;43961;52.940;6.834;2023-11-21T10:01:36;8.20;99.90
57026;DHT22;43961;52.940;6.834;2023-11-21T10:04:02;8.10;99.90
57026;DHT22;43961;52.940;6.834;2023-11-21T10:06:28;8.10;99.90
57026;DHT22;43961;52.940;6.834;2023-11-21T10:08:55;8.20;99.90
57026;DHT22;43961;52.940;6.834;2023-11-21T10:11:25;8.20;99.90
57026;DHT22;43961;52.940;6.834;2023-11-21T10:13:59;8.20;99.90
57026;DHT22;43961;52.940;6.834;2023-11-21T10:16:26;8.20;99.90
57026;DHT22;43961;52.940;6.834;2023-11-21T10:18:53;8.20;99.90
57026;DHT22;43961;52.940;6.834;2023-11-21T10:21:22;8.20;99.90
57026;DHT22;43961;52.940;6.834;2023-11-21T10:23:50;8.20;99.90
57026;DHT22;43961;52.940;6.834;2023-11-21T10:26:18;8.20;99.90
57026;DHT22;43961;52.940;6.834;2023-11-21T10:28:59;8.20;99.90
57026;DHT22;43961;52.940;6.834;2023-11-21T10:31:32;8.10;99.90
57026;DHT22;43961;52.940;6.834;2023-11-21T10:34:17;8.10;99.90
57026;DHT22;43961;52.940;6.834;2023-11-21T10:36:44;8.10;99.90
57026;DHT22;43961;52.940;6.834;2023-11-21T10:39:13;8.10;99.90
57026;DHT22;43961;52.940;6.834;2023-11-21T10:41:39;8.10;99.90
57026;DHT22;43961;52.940;6.834;2023-11-21T10:44:05;8.20;99.90
57026;DHT22;43961;52.940;6.834;2023-11-21T10:46:34;8.20;99.90
57026;DHT22;43961;52.940;6.834;2023-11-21T10:49:00;8.30;99.90
57026;DHT22;43961;52.940;6.834;2023-11-21T10:51:27;8.30;99.90
57026;DHT22;43961;52.940;6.834;2023-11-21T10:53:53;8.40;99.90
57026;DHT22;43961;52.940;6.834;2023-11-21T10:56:23;8.30;99.90
57026;DHT22;43961;52.940;6.834;2023-11-21T10:58:49;8.40;99.90
57026;DHT22;43961;52.940;6.834;2023-11-21T11:01:19;8.40;99.90
57026;DHT22;43961;52.940;6.834;2023-11-21T11:03:49;8.40;99.90
57026;DHT22;43961;52.940;6.834;2023-11-21T11:06:16;8.40;99.90
57026;DHT22;43961;52.940;6.834;2023-11-21T11:08:44;8.40;99.90
57026;DHT22;43961;52.940;6.834;2023-11-21T11:11:11;8.30;99.90
57026;DHT22;43961;52.940;6.834;2023-11-21T11:13:38;8.30;99.90
57026;DHT22;43961;52.940;6.834;2023-11-21T11:16:05;8.30;99.90
57026;DHT22;43961;52.940;6.834;2023-11-21T11:18:33;8.20;99.90
57026;DHT22;43961;52.940;6.834;2023-11-21T11:21:12;8.20;99.90
57026;DHT22;43961;52.940;6.834;2023-11-21T11:23:46;8.20;99.90
57026;DHT22;43961;52.940;6.834;2023-11-21T11:26:51;8.20;99.90
57026;DHT22;43961;52.940;6.834;2023-11-21T11:29:35;8.20;99.90
57026;DHT22;43961;52.940;6.834;2023-11-21T11:32:16;8.20;99.90
57026;DHT22;43961;52.940;6.834;2023-11-21T11:34:54;8.30;99.90
57026;DHT22;43961;52.940;6.834;2023-11-21T11:37:22;8.40;99.90
57026;DHT22;43961;52.940;6.834;2023-11-21T11:39:49;8.40;99.90
57026;DHT22;43961;52.940;6.834;2023-11-21T11:42:17;8.50;99.90
57026;DHT22;43961;52.940;6.834;2023-11-21T11:47:31;8.60;99.90
57026;DHT22;43961;52.940;6.834;2023-11-21T11:50:11;8.60;99.90
57026;DHT22;43961;52.940;6.834;2023-11-21T11:52:55;8.60;99.90
57026;DHT22;43961;52.940;6.834;2023-11-21T11:55:24;8.50;99.90
57026;DHT22;43961;52.940;6.834;2023-11-21T11:57:51;8.60;99.90
57026;DHT22;43961;52.940;6.834;2023-11-21T12:00:17;8.60;99.90
57026;DHT22;43961;52.940;6.834;2023-11-21T12:02:49;8.60;99.90
57026;DHT22;43961;52.940;6.834;2023-11-21T12:05:20;8.60;99.90
57026;DHT22;43961;52.940;6.834;2023-11-21T12:07:53;8.60;99.90
57026;DHT22;43961;52.940;6.834;2023-11-21T12:10:24;8.50;99.90
57026;DHT22;43961;52.940;6.834;2023-11-21T12:12:57;8.50;99.90
57026;DHT22;43961;52.940;6.834;2023-11-21T12:15:24;8.40;99.90
57026;DHT22;43961;52.940;6.834;2023-11-21T12:17:51;8.40;99.90
57026;DHT22;43961;52.940;6.834;2023-11-21T12:20:24;8.40;99.90
57026;DHT22;43961;52.940;6.834;2023-11-21T12:22:59;8.40;99.90
57026;DHT22;43961;52.940;6.834;2023-11-21T12:25:27;8.40;99.90
57026;DHT22;43961;52.940;6.834;2023-11-21T12:28:00;8.40;99.90
57026;DHT22;43961;52.940;6.834;2023-11-21T12:30:27;8.50;99.90
57026;DHT22;43961;52.940;6.834;2023-11-21T12:32:57;8.40;99.90
57026;DHT22;43961;52.940;6.834;2023-11-21T12:35:33;8.40;99.90
57026;DHT22;43961;52.940;6.834;2023-11-21T12:38:04;8.40;99.90
57026;DHT22;43961;52.940;6.834;2023-11-21T12:40:34;8.40;99.90
57026;DHT22;43961;52.940;6.834;2023-11-21T12:43:00;8.40;99.90
57026;DHT22;43961;52.940;6.834;2023-11-21T12:45:33;8.40;99.90
57026;DHT22;43961;52.940;6.834;2023-11-21T12:48:04;8.40;99.90
57026;DHT22;43961;52.940;6.834;2023-11-21T12:50:34;8.40;99.90
57026;DHT22;43961;52.940;6.834;2023-11-21T12:53:06;8.40;99.90
57026;DHT22;43961;52.940;6.834;2023-11-21T12:55:35;8.40;99.90
57026;DHT22;43961;52.940;6.834;2023-11-21T12:58:08;8.40;99.90
57026;DHT22;43961;52.940;6.834;2023-11-21T13:00:36;8.50;99.90
57026;DHT22;43961;52.940;6.834;2023-11-21T13:03:03;8.60;99.90
57026;DHT22;43961;52.940;6.834;2023-11-21T13:05:37;8.60;99.90
57026;DHT22;43961;52.940;6.834;2023-11-21T13:08:11;8.60;99.90
57026;DHT22;43961;52.940;6.834;2023-11-21T13:10:39;8.60;99.90
57026;DHT22;43961;52.940;6.834;2023-11-21T13:13:09;8.60;99.90
57026;DHT22;43961;52.940;6.834;2023-11-21T13:15:39;8.50;99.90
57026;DHT22;43961;52.940;6.834;2023-11-21T13:18:06;8.40;99.90
57026;DHT22;43961;52.940;6.834;2023-11-21T13:20:32;8.40;99.90
57026;DHT22;43961;52.940;6.834;2023-11-21T13:22:59;8.30;99.90
57026;DHT22;43961;52.940;6.834;2023-11-21T13:25:27;8.30;99.90
57026;DHT22;43961;52.940;6.834;2023-11-21T13:27:57;8.30;99.90
57026;DHT22;43961;52.940;6.834;2023-11-21T13:30:23;8.30;99.90
57026;DHT22;43961;52.940;6.834;2023-11-21T13:32:53;8.40;99.90
57026;DHT22;43961;52.940;6.834;2023-11-21T13:35:23;8.50;99.90
57026;DHT22;43961;52.940;6.834;2023-11-21T13:37:57;8.50;99.90
57026;DHT22;43961;52.940;6.834;2023-11-21T13:40:26;8.60;99.90
57026;DHT22;43961;52.940;6.834;2023-11-21T13:42:55;8.60;99.90
57026;DHT22;43961;52.940;6.834;2023-11-21T13:45:25;8.60;99.90
57026;DHT22;43961;52.940;6.834;2023-11-21T13:47:52;8.60;99.90
57026;DHT22;43961;52.940;6.834;2023-11-21T13:50:20;8.50;99.90
57026;DHT22;43961;52.940;6.834;2023-11-21T13:52:52;8.50;99.90
57026;DHT22;43961;52.940;6.834;2023-11-21T13:55:19;8.50;99.90
57026;DHT22;43961;52.940;6.834;2023-11-21T13:57:45;8.50;99.90
57026;DHT22;43961;52.940;6.834;2023-11-21T14:00:15;8.50;99.90
57026;DHT22;43961;52.940;6.834;2023-11-21T14:03:00;8.40;99.90
57026;DHT22;43961;52.940;6.834;2023-11-21T14:05:29;8.30;99.90
57026;DHT22;43961;52.940;6.834;2023-11-21T14:07:57;8.30;99.90
57026;DHT22;43961;52.940;6.834;2023-11-21T14:10:29;8.30;99.90
57026;DHT22;43961;52.940;6.834;2023-11-21T14:13:05;8.20;99.90
57026;DHT22;43961;52.940;6.834;2023-11-21T14:15:31;8.20;99.90
57026;DHT22;43961;52.940;6.834;2023-11-21T14:17:59;8.20;99.90
57026;DHT22;43961;52.940;6.834;2023-11-21T14:20:28;8.20;99.90
57026;DHT22;43961;52.940;6.834;2023-11-21T14:22:54;8.20;99.90
57026;DHT22;43961;52.940;6.834;2023-11-21T14:25:20;8.20;99.90
57026;DHT22;43961;52.940;6.834;2023-11-21T14:27:48;8.10;99.90
57026;DHT22;43961;52.940;6.834;2023-11-21T14:30:13;8.10;99.90
57026;DHT22;43961;52.940;6.834;2023-11-21T14:32:40;8.10;99.90
57026;DHT22;43961;52.940;6.834;2023-11-21T14:35:06;8.10;99.90
57026;DHT22;43961;52.940;6.834;2023-11-21T14:37:34;8.10;99.90
57026;DHT22;43961;52.940;6.834;2023-11-21T14:40:00;8.10;99.90
57026;DHT22;43961;52.940;6.834;2023-11-21T14:42:26;8.00;99.90
57026;DHT22;43961;52.940;6.834;2023-11-21T14:44:54;8.00;99.90
57026;DHT22;43961;52.940;6.834;2023-11-21T14:47:25;7.90;99.90
57026;DHT22;43961;52.940;6.834;2023-11-21T14:49:52;7.90;99.90
57026;DHT22;43961;52.940;6.834;2023-11-21T14:52:22;7.90;99.90
57026;DHT22;43961;52.940;6.834;2023-11-21T14:55:03;7.90;99.90
57026;DHT22;43961;52.940;6.834;2023-11-21T14:57:46;7.80;99.90
57026;DHT22;43961;52.940;6.834;2023-11-21T15:00:19;7.80;99.90
57026;DHT22;43961;52.940;6.834;2023-11-21T15:03:01;7.80;99.90
57026;DHT22;43961;52.940;6.834;2023-11-21T15:05:27;7.80;99.90
57026;DHT22;43961;52.940;6.834;2023-11-21T15:07:56;7.80;99.90
57026;DHT22;43961;52.940;6.834;2023-11-21T15:10:33;7.70;99.90
57026;DHT22;43961;52.940;6.834;2023-11-21T15:13:12;7.70;99.90
57026;DHT22;43961;52.940;6.834;2023-11-21T15:15:38;7.70;99.90
57026;DHT22;43961;52.940;6.834;2023-11-21T15:18:05;7.70;99.90
57026;DHT22;43961;52.940;6.834;2023-11-21T15:20:32;7.70;99.90
57026;DHT22;43961;52.940;6.834;2023-11-21T15:22:57;7.70;99.90
57026;DHT22;43961;52.940;6.834;2023-11-21T15:25:23;7.70;99.90
57026;DHT22;43961;52.940;6.834;2023-11-21T15:27:49;7.60;99.90
57026;DHT22;43961;52.940;6.834;2023-11-21T15:30:16;7.60;99.90
57026;DHT22;43961;52.940;6.834;2023-11-21T15:32:45;7.60;99.90
57026;DHT22;43961;52.940;6.834;2023-11-21T15:35:12;7.60;99.90
57026;DHT22;43961;52.940;6.834;2023-11-21T15:37:40;7.60;99.90
57026;DHT22;43961;52.940;6.834;2023-11-21T15:40:06;7.60;99.90
57026;DHT22;43961;52.940;6.834;2023-11-21T15:42:34;7.50;99.90
57026;DHT22;43961;52.940;6.834;2023-11-21T15:45:02;7.50;99.90
57026;DHT22;43961;52.940;6.834;2023-11-21T15:47:30;7.40;99.90
57026;DHT22;43961;52.940;6.834;2023-11-21T15:49:55;7.40;99.90
57026;DHT22;43961;52.940;6.834;2023-11-21T15:52:21;7.40;99.90
57026;DHT22;43961;52.940;6.834;2023-11-21T15:54:47;7.30;99.90
57026;DHT22;43961;52.940;6.834;2023-11-21T15:57:13;7.30;99.90
57026;DHT22;43961;52.940;6.834;2023-11-21T15:59:40;7.20;99.90
57026;DHT22;43961;52.940;6.834;2023-11-21T16:02:07;7.20;99.90
57026;DHT22;43961;52.940;6.834;2023-11-21T16:04:36;7.10;99.90
57026;DHT22;43961;52.940;6.834;2023-11-21T16:07:03;7.10;99.90
57026;DHT22;43961;52.940;6.834;2023-11-21T16:09:31;7.00;99.90
57026;DHT22;43961;52.940;6.834;2023-11-21T16:11:58;6.90;99.90
57026;DHT22;43961;52.940;6.834;2023-11-21T16:14:34;6.90;99.90
57026;DHT22;43961;52.940;6.834;2023-11-21T16:17:13;6.80;99.90
57026;DHT22;43961;52.940;6.834;2023-11-21T16:19:47;6.80;99.90
57026;DHT22;43961;52.940;6.834;2023-11-21T16:22:13;6.70;99.90
57026;DHT22;43961;52.940;6.834;2023-11-21T16:24:39;6.70;99.90
57026;DHT22;43961;52.940;6.834;2023-11-21T16:27:05;6.60;99.90